Time;durP1;ratioP1;P1;durP2;ratioP2;P2;SDS_P1;SDS_P2;PMS_P1;PMS_P2;Temp;Humidity;BMP_temperature;BMP_pressure;BME280_temperature;BME280_humidity;BME280_pressure;Samples;Min_cycle;Max_cycle;Signal;HPM_P1;HPM_P2
2023/10/13 00:01:38;;;;;;;;;;;;;;;21.36;59.14;101135.09;4950620;28;115383;-80
2023/10/13 00:04:05;;;;;;;;;;;;;;;21.37;59.10;101130.53;4943973;28;115546;-78
2023/10/13 00:06:32;;;;;;;;;;;;;;;21.38;59.13;101126.88;4926144;28;123932;-80
2023/10/13 00:08:59;;;;;;;;;;;;;;;21.38;59.06;101122.31;4947969;28;124740;-80
2023/10/13 00:11:26;;;;;;;;;;;;;;;21.37;59.15;101117.91;4944844;28;114311;-80
2023/10/13 00:13:54;;;;;;;;;;;;;;;21.37;59.39;101119.75;4944805;28;113908;-80
2023/10/13 00:16:21;;;;;;;;;;;;;;;21.37;59.18;101114.38;4943325;28;124409;-79
2023/10/13 00:18:54;;;;;;;;;;;;;;;21.37;59.18;101108.97;4950306;28;123375;-79
2023/10/13 00:21:33;;;;;;;;;;;;;;;21.37;59.13;101108.97;4948368;28;114136;-80
2023/10/13 00:24:01;;;;;;;;;;;;;;;21.37;59.09;101101.75;4943271;28;113964;-80
2023/10/13 00:26:28;;;;;;;;;;;;;;;21.37;59.09;101108.97;4930776;28;124720;-81
2023/10/13 00:29:16;;;;;;;;;;;;;;;21.36;59.23;101101.88;4949851;28;124657;-80
2023/10/13 00:31:43;;;;;;;;;;;;;;;21.36;59.15;101101.88;4954561;28;113186;-79
2023/10/13 00:34:19;;;;;;;;;;;;;;;21.35;59.22;101092.94;4964195;28;114177;-80
2023/10/13 00:37:10;;;;;;;;;;;;;;;21.37;59.23;101092.81;4928940;28;124622;-79
2023/10/13 00:39:37;;;;;;;;;;;;;;;21.36;59.13;101091.09;4949607;28;122950;-80
2023/10/13 00:42:07;;;;;;;;;;;;;;;21.36;59.22;101091.09;4945706;28;113421;-79
2023/10/13 00:44:41;;;;;;;;;;;;;;;21.36;59.21;101096.47;4948799;28;113662;-79
2023/10/13 00:47:09;;;;;;;;;;;;;;;21.36;59.21;101096.47;4944539;28;124664;-80
2023/10/13 00:49:39;;;;;;;;;;;;;;;21.36;59.17;101085.69;4950516;28;123868;-80
2023/10/13 00:52:09;;;;;;;;;;;;;;;21.35;59.41;101084.00;4948064;28;116353;-80
2023/10/13 00:54:37;;;;;;;;;;;;;;;21.35;59.22;101084.00;4947444;28;116544;-79
2023/10/13 00:57:12;;;;;;;;;;;;;;;21.36;59.22;101074.94;4949985;28;124195;-79
2023/10/13 00:59:42;;;;;;;;;;;;;;;21.36;59.24;101080.31;4949681;28;124792;-80
2023/10/13 01:04:55;;;;;;;;;;;;;;;21.33;59.20;101070.66;4948469;28;114655;-79
2023/10/13 01:07:22;;;;;;;;;;;;;;;21.33;59.25;101067.13;4948464;28;123221;-80
2023/10/13 01:09:50;;;;;;;;;;;;;;;21.31;59.26;101061.03;4948522;28;125117;-80
2023/10/13 01:12:17;;;;;;;;;;;;;;;21.29;59.30;101057.63;4950214;28;114284;-80
2023/10/13 01:14:46;;;;;;;;;;;;;;;21.28;59.24;101062.13;4948703;28;113970;-80
2023/10/13 01:17:13;;;;;;;;;;;;;;;21.27;59.43;101060.44;4948423;28;123719;-79
2023/10/13 01:19:43;;;;;;;;;;;;;;;21.26;59.30;101055.16;4953154;28;125136;-79
2023/10/13 01:22:11;;;;;;;;;;;;;;;21.25;59.32;101045.38;4932839;28;114250;-79
2023/10/13 01:24:38;;;;;;;;;;;;;;;21.23;59.35;101047.34;4943985;28;114230;-80
2023/10/13 01:27:19;;;;;;;;;;;;;;;21.20;59.35;101041.25;4956620;28;123917;-80
2023/10/13 01:29:51;;;;;;;;;;;;;;;21.20;59.30;101038.56;4954847;28;123990;-79
2023/10/13 01:32:19;;;;;;;;;;;;;;;21.20;59.39;101027.78;4953863;28;113776;-80
2023/10/13 01:34:48;;;;;;;;;;;;;;;21.20;59.43;101033.16;4962972;28;114179;-80
2023/10/13 01:37:16;;;;;;;;;;;;;;;21.22;59.41;101034.88;4946046;28;124288;-79
2023/10/13 01:39:47;;;;;;;;;;;;;;;21.22;59.44;101034.88;4956559;28;124358;-80
2023/10/13 01:42:19;;;;;;;;;;;;;;;21.23;59.35;101026.69;4948037;28;114516;-80
2023/10/13 01:44:47;;;;;;;;;;;;;;;21.23;59.38;101025.78;4954606;28;115681;-81
2023/10/13 01:47:16;;;;;;;;;;;;;;;21.22;59.36;101016.03;4954458;28;124928;-79
2023/10/13 01:49:46;;;;;;;;;;;;;;;21.20;59.40;101011.63;4958839;28;125957;-80
2023/10/13 01:52:17;;;;;;;;;;;;;;;21.19;59.48;101003.66;4948797;28;114548;-80
2023/10/13 01:54:45;;;;;;;;;;;;;;;21.18;59.54;100997.44;4947173;28;115673;-79
2023/10/13 01:57:17;;;;;;;;;;;;;;;21.18;59.41;101002.81;4953699;28;124916;-80
2023/10/13 01:59:45;;;;;;;;;;;;;;;21.17;59.42;100990.34;4950310;28;124032;-80
2023/10/13 02:02:19;;;;;;;;;;;;;;;21.16;59.44;100994.03;4950694;28;114399;-80
2023/10/13 02:04:55;;;;;;;;;;;;;;;21.17;59.42;100982.28;4936361;28;114708;-80
2023/10/13 02:07:27;;;;;;;;;;;;;;;21.16;59.53;100983.25;4949432;28;123986;-80
2023/10/13 02:09:54;;;;;;;;;;;;;;;21.17;59.49;100984.97;4936864;28;124846;-80
2023/10/13 02:12:27;;;;;;;;;;;;;;;21.15;59.56;100970.78;4956505;28;113786;-79
2023/10/13 02:14:54;;;;;;;;;;;;;;;21.16;59.45;100972.47;4944103;28;112014;-80
2023/10/13 02:17:26;;;;;;;;;;;;;;;21.16;59.52;100967.09;4954469;28;124282;-80
2023/10/13 02:19:54;;;;;;;;;;;;;;;21.17;59.52;100963.41;4953925;28;124067;-79
2023/10/13 02:22:27;;;;;;;;;;;;;;;21.17;59.56;100952.63;4955548;28;113886;-80
2023/10/13 02:25:01;;;;;;;;;;;;;;;21.18;59.60;100959.72;4956429;28;113782;-80
2023/10/13 02:27:28;;;;;;;;;;;;;;;21.19;59.54;100956.06;4951602;28;124767;-80
2023/10/13 02:29:58;;;;;;;;;;;;;;;21.19;59.46;100953.34;4961510;28;125121;-80
2023/10/13 02:32:26;;;;;;;;;;;;;;;21.19;59.40;100950.66;4948302;28;114856;-79
2023/10/13 02:34:58;;;;;;;;;;;;;;;21.19;59.49;100956.06;4935193;28;114227;-79
2023/10/13 02:37:27;;;;;;;;;;;;;;;21.17;59.51;100958.03;4936765;28;123764;-79
2023/10/13 02:39:57;;;;;;;;;;;;;;;21.16;59.51;100956.31;4944580;28;123941;-80
2023/10/13 02:42:24;;;;;;;;;;;;;;;21.15;59.57;100951.94;4950777;28;113262;-79
2023/10/13 02:44:55;;;;;;;;;;;;;;;21.15;59.53;100942.97;4951844;28;113763;-80
2023/10/13 02:47:24;;;;;;;;;;;;;;;21.15;59.63;100941.16;4952330;28;123792;-80
2023/10/13 02:49:51;;;;;;;;;;;;;;;21.14;59.56;100936.75;4935217;28;124698;-79
2023/10/13 02:52:18;;;;;;;;;;;;;;;21.14;59.65;100925.13;4955579;28;115228;-80
2023/10/13 02:54:50;;;;;;;;;;;;;;;21.13;59.54;100920.72;4947935;28;113154;-80
2023/10/13 02:57:18;;;;;;;;;;;;;;;21.13;59.72;100913.47;4933269;28;125229;-80
2023/10/13 02:59:48;;;;;;;;;;;;;;;21.12;59.63;100900.16;4945127;28;124021;-79
2023/10/13 03:02:18;;;;;;;;;;;;;;;21.12;59.72;100901.00;4934950;28;113426;-80
2023/10/13 03:04:46;;;;;;;;;;;;;;;21.14;59.75;100908.97;4947915;28;114154;-79
2023/10/13 03:07:22;;;;;;;;;;;;;;;21.15;59.72;100910.66;4951297;28;123835;-79
2023/10/13 03:09:50;;;;;;;;;;;;;;;21.14;59.74;100882.88;4933765;28;125271;-80
2023/10/13 03:12:18;;;;;;;;;;;;;;;21.14;59.76;100874.78;4951152;28;115307;-80
2023/10/13 03:14:49;;;;;;;;;;;;;;;21.14;59.79;100877.47;4948541;28;113340;-80
2023/10/13 03:17:22;;;;;;;;;;;;;;;21.14;59.78;100866.72;4953882;28;124868;-80
2023/10/13 03:19:49;;;;;;;;;;;;;;;21.16;59.83;100867.41;4943187;28;124435;-79
2023/10/13 03:22:18;;;;;;;;;;;;;;;21.17;59.84;100870.97;4951383;28;114414;-79
2023/10/13 03:24:46;;;;;;;;;;;;;;;21.18;59.88;100857.34;4950149;28;116769;-79
2023/10/13 03:27:17;;;;;;;;;;;;;;;21.19;59.69;100853.69;4951781;28;124349;-79
2023/10/13 03:29:53;;;;;;;;;;;;;;;21.19;59.82;100853.69;4927727;28;124585;-80
2023/10/13 03:32:20;;;;;;;;;;;;;;;21.19;59.79;100842.91;4944221;28;114129;-80
2023/10/13 03:34:57;;;;;;;;;;;;;;;21.22;59.91;100832.84;4950942;28;113603;-80
2023/10/13 03:37:37;;;;;;;;;;;;;;;21.20;59.81;100823.06;4931217;28;123608;-80
2023/10/13 03:40:07;;;;;;;;;;;;;;;21.19;59.73;100824.06;4948143;28;123351;-80
2023/10/13 03:42:34;;;;;;;;;;;;;;;21.20;59.82;100828.44;4951206;28;114266;-80
2023/10/13 03:45:02;;;;;;;;;;;;;;;21.22;59.92;100824.78;4961563;28;114391;-80
2023/10/13 03:47:32;;;;;;;;;;;;;;;21.25;59.97;100813.69;4950933;28;123616;-80
2023/10/13 03:50:29;;;;;;;;;;;;;;;21.26;59.88;100812.72;4951368;28;125401;-80
2023/10/13 03:52:59;;;;;;;;;;;;;;;21.26;59.91;100805.47;4951880;28;114156;-80
2023/10/13 03:55:29;;;;;;;;;;;;;;;21.25;59.95;100795.72;4949078;28;113157;-79
2023/10/13 03:57:59;;;;;;;;;;;;;;;21.27;59.87;100782.13;4946538;28;123204;-80
2023/10/13 04:00:27;;;;;;;;;;;;;;;21.26;59.96;100777.69;4950992;28;124961;-79
2023/10/13 04:03:07;;;;;;;;;;;;;;;21.29;60.01;100777.44;4948536;28;113822;-79
2023/10/13 04:05:41;;;;;;;;;;;;;;;21.31;59.91;100776.28;4931742;28;113241;-80
2023/10/13 04:30:10;;;;;;;;;;;;;;;21.38;60.24;100720.00;4940988;28;124341;-79
2023/10/13 04:32:41;;;;;;;;;;;;;;;21.40;60.23;100709.94;4947516;28;123137;-81
2023/10/13 04:35:10;;;;;;;;;;;;;;;21.41;60.22;100698.16;4949096;28;114430;-80
2023/10/13 04:37:50;;;;;;;;;;;;;;;21.44;60.27;100711.38;4939810;28;112699;-80
2023/10/13 04:40:25;;;;;;;;;;;;;;;21.46;60.24;100697.78;4947469;28;124265;-80
2023/10/13 04:47:58;;;;;;;;;;;;;;;21.49;60.27;100703.72;4947701;28;113359;-80
2023/10/13 04:50:34;;;;;;;;;;;;;;;21.49;60.30;100706.41;4948086;28;124810;-80
2023/10/13 04:53:01;;;;;;;;;;;;;;;21.51;60.31;100709.81;4948134;28;123336;-80
2023/10/13 04:58:14;;;;;;;;;;;;;;;21.55;60.32;100700.44;4943285;28;114584;-81
2023/10/13 05:01:23;;;;;;;;;;;;;;;21.58;60.49;100697.44;4934560;28;123735;-80
2023/10/13 05:47:53;;;;;;;;;;;;;;;21.78;60.71;100617.38;4947299;28;122895;-81
2023/10/13 06:28:59;;;;;;;;;;;;;;;21.90;60.91;100626.13;4930345;28;124403;-81
2023/10/13 06:31:26;;;;;;;;;;;;;;;21.92;60.86;100623.28;4950282;28;123009;-81
2023/10/13 06:33:55;;;;;;;;;;;;;;;21.93;60.82;100631.25;4958108;28;113149;-81
2023/10/13 06:36:23;;;;;;;;;;;;;;;21.95;60.96;100623.84;4953297;28;112665;-80
2023/10/13 06:39:20;;;;;;;;;;;;;;;21.97;60.83;100624.53;4935792;28;123046;-80
2023/10/13 06:41:40;;;;;;;;;;;;;;;21.96;60.78;100625.56;4947781;28;123664;-80
2023/10/13 06:44:14;;;;;;;;;;;;;;;21.99;60.77;100612.78;4950686;28;114286;-80
2023/10/13 06:46:42;;;;;;;;;;;;;;;22.01;60.95;100616.16;4949145;28;112696;-81
2023/10/13 06:49:10;;;;;;;;;;;;;;;22.01;60.86;100610.78;4946350;28;124167;-81
2023/10/13 06:51:40;;;;;;;;;;;;;;;22.02;60.84;100607.94;4950746;28;124583;-81
2023/10/13 06:54:19;;;;;;;;;;;;;;;22.03;60.84;100604.22;4946933;28;116012;-80
2023/10/13 06:56:51;;;;;;;;;;;;;;;22.06;60.77;100603.09;4923677;28;114857;-80
2023/10/13 06:59:18;;;;;;;;;;;;;;;22.07;60.78;100607.47;4959182;28;124720;-80
2023/10/13 07:01:48;;;;;;;;;;;;;;;22.06;60.78;100603.09;4968924;28;125580;-80
2023/10/13 07:04:16;;;;;;;;;;;;;;;22.06;60.86;100595.00;4950323;28;112892;-80
2023/10/13 07:06:50;;;;;;;;;;;;;;;22.06;60.86;100587.75;4948059;28;114154;-80
2023/10/13 07:12:06;;;;;;;;;;;;;;;22.07;60.90;100580.50;4930424;28;122931;-80
2023/10/13 07:14:34;;;;;;;;;;;;;;;22.08;60.84;100579.53;4936117;28;114689;-80
2023/10/13 07:17:02;;;;;;;;;;;;;;;22.08;60.85;100568.72;4931505;28;111913;-80
2023/10/13 07:19:29;;;;;;;;;;;;;;;22.09;60.82;100573.09;4929318;28;124346;-80
2023/10/13 07:22:03;;;;;;;;;;;;;;;22.10;60.92;100577.50;4943234;28;123939;-80
2023/10/13 07:24:33;;;;;;;;;;;;;;;22.10;60.91;100572.13;4951797;28;112715;-80
2023/10/13 07:27:05;;;;;;;;;;;;;;;22.10;60.83;100556.78;4952082;28;113768;-80
2023/10/13 07:29:35;;;;;;;;;;;;;;;22.10;60.95;100561.34;4937760;28;124933;-80
2023/10/13 07:32:03;;;;;;;;;;;;;;;22.10;60.91;100551.38;4947585;28;123829;-80
2023/10/13 07:34:35;;;;;;;;;;;;;;;22.11;60.96;100541.44;4951628;28;114173;-80
2023/10/13 07:37:07;;;;;;;;;;;;;;;22.12;60.86;100537.75;4950365;28;113901;-80
2023/10/13 07:39:34;;;;;;;;;;;;;;;22.12;60.92;100537.75;4948893;28;124037;-80
2023/10/13 07:42:06;;;;;;;;;;;;;;;22.13;60.91;100523.25;4951653;28;123666;-79
2023/10/13 07:44:34;;;;;;;;;;;;;;;22.13;60.94;100540.31;4952379;28;116270;-79
2023/10/13 07:47:04;;;;;;;;;;;;;;;22.16;60.97;100533.75;4931786;28;114999;-78
2023/10/13 07:49:36;;;;;;;;;;;;;;;22.16;60.99;100533.75;4932029;28;124450;-78
2023/10/13 07:52:23;;;;;;;;;;;;;;;22.21;61.07;100549.47;4930336;28;124126;-78
2023/10/13 07:55:19;;;;;;;;;;;;;;;22.22;60.95;100543.91;4945604;28;114384;-78
2023/10/13 07:57:53;;;;;;;;;;;;;;;22.24;61.23;100528.41;4933583;28;113076;-78
2023/10/13 08:06:28;;;;;;;;;;;;;;;22.34;61.16;100513.06;4949206;28;114026;-78
2023/10/13 08:08:43;;;;;;;;;;;;;;;22.40;61.12;100513.47;4924203;28;113127;-79
2023/10/13 08:11:11;;;;;;;;;;;;;;;22.44;61.17;100504.03;4947705;28;125181;-79
2023/10/13 08:13:46;;;;;;;;;;;;;;;22.47;61.19;100498.31;4948612;28;123993;-79
2023/10/13 08:19:31;;;;;;;;;;;;;;;22.58;61.10;100499.94;4946731;28;113612;-79
2023/10/13 08:21:59;;;;;;;;;;;;;;;22.61;61.27;100500.47;4943817;28;124401;-80
2023/10/13 08:30:26;;;;;;;;;;;;;;;22.76;61.20;100491.81;4945136;28;114876;-79
2023/10/13 08:32:43;;;;;;;;;;;;;;;22.81;61.25;100474.16;4951696;28;124707;-80
2023/10/13 08:35:22;;;;;;;;;;;;;;;22.88;61.25;100495.94;4948383;28;124483;-80
2023/10/13 08:43:11;;;;;;;;;;;;;;;23.08;61.08;100502.03;4951981;28;125060;-79
2023/10/13 08:48:08;;;;;;;;;;;;;;;23.25;61.32;100481.38;4941387;28;114143;-79
2023/10/13 08:56:15;;;;;;;;;;;;;;;23.44;61.20;100470.31;4940591;28;123415;-78
2023/10/13 09:01:48;;;;;;;;;;;;;;;23.60;61.31;100458.72;4948930;28;114233;-79
2023/10/13 09:04:22;;;;;;;;;;;;;;;23.68;61.17;100466.03;4947466;28;122414;-78
2023/10/13 09:15:05;;;;;;;;;;;;;;;23.83;60.90;100461.69;4930212;28;123990;-78
2023/10/13 09:17:41;;;;;;;;;;;;;;;23.88;60.64;100451.25;4943695;28;123766;-78
2023/10/13 09:20:24;;;;;;;;;;;;;;;23.90;60.90;100443.81;4924483;28;115069;-79
2023/10/13 09:25:37;;;;;;;;;;;;;;;23.96;60.62;100436.00;4947210;28;124305;-78
2023/10/13 09:28:15;;;;;;;;;;;;;;;23.98;60.41;100452.91;4942223;28;124434;-78
2023/10/13 09:30:43;;;;;;;;;;;;;;;23.98;60.56;100442.97;4939595;28;115591;-79
2023/10/13 09:33:15;;;;;;;;;;;;;;;24.00;60.23;100448.22;4940442;28;114326;-78
2023/10/13 09:35:51;;;;;;;;;;;;;;;24.01;60.26;100439.06;4943585;28;125171;-79
2023/10/13 09:38:18;;;;;;;;;;;;;;;24.02;60.31;100440.78;4929884;28;124542;-78
2023/10/13 09:40:57;;;;;;;;;;;;;;;24.05;60.39;100443.13;4945090;28;114600;-79
2023/10/13 09:43:26;;;;;;;;;;;;;;;24.07;60.41;100441.09;4940837;28;112777;-79
2023/10/13 09:46:17;;;;;;;;;;;;;;;24.07;60.20;100433.84;4940888;28;124342;-78
2023/10/13 09:48:46;;;;;;;;;;;;;;;24.09;60.45;100431.84;4947448;28;124738;-78
2023/10/13 09:51:14;;;;;;;;;;;;;;;24.10;60.28;100438.06;4938217;28;114783;-79
2023/10/13 09:53:45;;;;;;;;;;;;;;;24.12;60.21;100427.94;4944100;28;114292;-79
2023/10/13 09:56:51;;;;;;;;;;;;;;;24.17;60.34;100424.75;4929884;28;123356;-78
2023/10/13 09:59:36;;;;;;;;;;;;;;;24.23;60.04;100430.31;4952117;28;124006;-79
2023/10/13 10:02:08;;;;;;;;;;;;;;;24.27;60.25;100428.94;4947017;28;115481;-78
2023/10/13 10:04:44;;;;;;;;;;;;;;;24.32;59.99;100427.59;4943993;28;115472;-78
2023/10/13 10:07:16;;;;;;;;;;;;;;;24.35;59.98;100416.44;4947662;28;122427;-78
2023/10/13 10:09:55;;;;;;;;;;;;;;;24.36;59.73;100418.16;4936322;28;123458;-77
2023/10/13 10:12:29;;;;;;;;;;;;;;;24.40;60.04;100422.19;4948387;28;113660;-78
2023/10/13 10:15:02;;;;;;;;;;;;;;;24.44;60.10;100416.25;4931624;28;114008;-78
2023/10/13 10:17:33;;;;;;;;;;;;;;;24.48;60.18;100408.66;4929369;28;125517;-78
2023/10/13 10:20:06;;;;;;;;;;;;;;;24.53;60.11;100411.72;4951063;28;124579;-78
2023/10/13 10:22:33;;;;;;;;;;;;;;;24.59;60.01;100405.63;4944418;28;115983;-78
2023/10/13 10:25:06;;;;;;;;;;;;;;;24.63;59.90;100406.97;4951779;28;116218;-78
2023/10/13 10:27:34;;;;;;;;;;;;;;;24.64;59.71;100397.84;4926708;28;124434;-80
2023/10/13 10:30:03;;;;;;;;;;;;;;;24.67;59.53;100397.47;4944197;28;124576;-79
2023/10/13 10:32:34;;;;;;;;;;;;;;;24.70;59.63;100390.03;4922170;28;116480;-79
2023/10/13 10:35:07;;;;;;;;;;;;;;;24.72;59.63;100382.59;4946695;28;113570;-79
2023/10/13 10:37:36;;;;;;;;;;;;;;;24.73;59.45;100384.25;4949688;28;125151;-79
2023/10/13 10:40:18;;;;;;;;;;;;;;;24.73;59.28;100373.44;4946278;28;124194;-79
2023/10/13 10:42:50;;;;;;;;;;;;;;;24.73;59.35;100370.72;4948871;28;114994;-79
2023/10/13 10:45:22;;;;;;;;;;;;;;;24.72;59.51;100355.50;4946892;28;113922;-79
2023/10/13 10:47:49;;;;;;;;;;;;;;;24.71;59.20;100354.66;4949468;28;123701;-78
2023/10/13 10:50:27;;;;;;;;;;;;;;;24.71;59.48;100342.97;4950130;28;123936;-78
2023/10/13 10:52:57;;;;;;;;;;;;;;;24.72;59.38;100352.81;4951016;28;115112;-79
2023/10/13 10:55:28;;;;;;;;;;;;;;;24.73;59.41;100357.19;4945930;28;114219;-78
2023/10/13 10:58:01;;;;;;;;;;;;;;;24.75;59.29;100363.28;4945351;28;124376;-79
2023/10/13 11:00:41;;;;;;;;;;;;;;;24.77;59.31;100370.22;4943003;28;124059;-78
2023/10/13 11:03:11;;;;;;;;;;;;;;;24.80;59.39;100374.44;4943328;28;114540;-79
2023/10/13 11:05:45;;;;;;;;;;;;;;;24.82;59.21;100356.13;4947979;28;114033;-79
2023/10/13 11:08:31;;;;;;;;;;;;;;;24.86;59.36;100357.47;4950001;28;124533;-79
2023/10/13 11:11:00;;;;;;;;;;;;;;;24.88;59.09;100347.31;4944826;28;124952;-78
2023/10/13 11:13:41;;;;;;;;;;;;;;;24.92;59.04;100359.50;4945926;28;115029;-78
2023/10/13 11:16:08;;;;;;;;;;;;;;;24.96;59.15;100352.72;4951105;28;114099;-78
2023/10/13 11:18:40;;;;;;;;;;;;;;;25.02;59.18;100357.44;4948185;28;125199;-79
2023/10/13 11:21:11;;;;;;;;;;;;;;;25.09;59.07;100352.16;4929342;28;123638;-78
2023/10/13 11:23:39;;;;;;;;;;;;;;;25.16;59.25;100349.56;4925297;28;113802;-78
2023/10/13 11:26:07;;;;;;;;;;;;;;;25.23;59.11;100347.88;4925864;28;114079;-77
2023/10/13 11:28:35;;;;;;;;;;;;;;;25.30;58.99;100338.03;4941554;28;124344;-78
2023/10/13 11:31:11;;;;;;;;;;;;;;;25.36;58.92;100326.47;4948250;28;124463;-78
2023/10/13 11:33:46;;;;;;;;;;;;;;;25.41;58.83;100325.91;4949717;28;114307;-77
2023/10/13 11:36:17;;;;;;;;;;;;;;;25.44;59.03;100312.00;4944513;28;113897;-78
2023/10/13 11:41:15;;;;;;;;;;;;;;;25.52;58.83;100302.97;4948950;28;124350;-78
2023/10/13 11:43:52;;;;;;;;;;;;;;;25.56;58.68;100304.31;4950954;28;114072;-78
2023/10/13 11:49:16;;;;;;;;;;;;;;;25.63;58.65;100283.56;4949407;28;122752;-78
2023/10/13 11:51:44;;;;;;;;;;;;;;;25.68;58.75;100278.47;4948501;28;124069;-78
2023/10/13 11:54:19;;;;;;;;;;;;;;;25.74;58.38;100285.84;4940770;28;115466;-78
2023/10/13 11:56:47;;;;;;;;;;;;;;;25.79;58.54;100285.34;4938041;28;114903;-78
2023/10/13 11:59:17;;;;;;;;;;;;;;;25.83;58.55;100284.78;4943558;28;123979;-78
2023/10/13 12:04:54;;;;;;;;;;;;;;;25.91;58.09;100264.03;4906176;28;115413;-78
2023/10/13 12:12:23;;;;;;;;;;;;;;;26.02;57.94;100255.47;4944516;28;123424;-79
2023/10/13 12:14:57;;;;;;;;;;;;;;;26.06;58.07;100250.53;4939977;28;113775;-78
2023/10/13 12:17:31;;;;;;;;;;;;;;;26.08;57.98;100249.28;4929690;28;113716;-78
2023/10/13 12:19:59;;;;;;;;;;;;;;;26.10;57.76;100235.53;4931930;28;124388;-78
2023/10/13 12:22:35;;;;;;;;;;;;;;;26.12;57.74;100250.59;4947241;28;124369;-78
2023/10/13 12:25:18;;;;;;;;;;;;;;;26.16;57.42;100246.50;4926412;28;115137;-78
2023/10/13 12:27:48;;;;;;;;;;;;;;;26.20;57.51;100247.81;4932499;28;112986;-78
2023/10/13 12:30:22;;;;;;;;;;;;;;;26.26;57.50;100242.66;4950796;28;123992;-79
2023/10/13 12:33:08;;;;;;;;;;;;;;;26.33;57.69;100249.03;4948710;28;124349;-78
2023/10/13 12:35:44;;;;;;;;;;;;;;;26.38;57.53;100243.88;4949857;28;114527;-78
2023/10/13 12:38:37;;;;;;;;;;;;;;;26.43;57.50;100246.91;4948396;28;114567;-78
2023/10/13 12:52:25;;;;;;;;;;;;;;;26.59;57.13;100233.13;4945699;28;124121;-78
2023/10/13 12:57:26;;;;;;;;;;;;;;;26.60;57.06;100231.28;4944412;28;115256;-77
2023/10/13 12:59:56;;;;;;;;;;;;;;;26.58;56.73;100236.84;4940201;28;114294;-78
2023/10/13 13:02:26;;;;;;;;;;;;;;;26.60;56.70;100237.53;4940501;28;125640;-78
2023/10/13 13:04:58;;;;;;;;;;;;;;;26.61;56.78;100236.50;4946107;28;124269;-78
2023/10/13 13:07:42;;;;;;;;;;;;;;;26.65;56.79;100238.84;4941024;28;114409;-78
2023/10/13 13:10:11;;;;;;;;;;;;;;;26.66;56.66;100229.69;4945527;28;112654;-78
2023/10/13 13:12:38;;;;;;;;;;;;;;;26.67;56.84;100242.22;4948511;28;123841;-78
2023/10/13 13:15:08;;;;;;;;;;;;;;;26.67;56.66;100226.75;4948445;28;127114;-78
2023/10/13 13:17:36;;;;;;;;;;;;;;;26.68;56.40;100238.47;4943677;28;114234;-78
2023/10/13 13:20:10;;;;;;;;;;;;;;;26.68;56.62;100233.03;4945278;28;113584;-78
2023/10/13 13:22:38;;;;;;;;;;;;;;;26.68;56.22;100233.88;4944047;28;124851;-78
2023/10/13 13:25:09;;;;;;;;;;;;;;;26.70;56.46;100237.25;4939594;28;122419;-78
2023/10/13 13:27:36;;;;;;;;;;;;;;;26.70;56.30;100228.25;4950944;28;113635;-78
2023/10/13 13:30:12;;;;;;;;;;;;;;;26.70;56.10;100225.53;4940070;28;114080;-78
2023/10/13 13:32:44;;;;;;;;;;;;;;;26.68;55.98;100223.00;4940673;28;124305;-78
2023/10/13 13:35:15;;;;;;;;;;;;;;;26.66;56.05;100218.81;4946042;28;124724;-78
2023/10/13 13:37:44;;;;;;;;;;;;;;;26.64;56.21;100226.31;4940578;28;115066;-78
2023/10/13 13:40:15;;;;;;;;;;;;;;;26.63;56.08;100224.63;4931978;28;114101;-78
2023/10/13 13:42:42;;;;;;;;;;;;;;;26.61;55.96;100220.19;4946060;28;123759;-78
2023/10/13 13:45:29;;;;;;;;;;;;;;;26.60;55.96;100204.94;4947674;28;123860;-78
2023/10/13 13:47:56;;;;;;;;;;;;;;;26.60;55.76;100214.97;4944084;28;115188;-77
2023/10/13 13:50:25;;;;;;;;;;;;;;;26.58;55.93;100215.13;4947710;28;114315;-78
2023/10/13 13:52:56;;;;;;;;;;;;;;;26.58;55.99;100206.97;4947294;28;125146;-78
2023/10/13 13:55:23;;;;;;;;;;;;;;;26.56;55.59;100214.47;4944815;28;124255;-77
2023/10/13 13:57:50;;;;;;;;;;;;;;;26.53;55.90;100225.72;4950054;28;114808;-77
2023/10/13 14:00:36;;;;;;;;;;;;;;;26.52;55.67;100226.75;4947302;28;113334;-77
2023/10/13 14:03:04;;;;;;;;;;;;;;;26.50;55.62;100226.06;4944865;28;125522;-77
2023/10/13 14:05:32;;;;;;;;;;;;;;;26.49;55.64;100218.97;4928555;28;123057;-78
2023/10/13 14:07:59;;;;;;;;;;;;;;;26.46;55.63;100208.47;4947390;28;114383;-78
2023/10/13 14:10:33;;;;;;;;;;;;;;;26.42;55.38;100209.91;4935304;28;113869;-78
2023/10/13 14:13:06;;;;;;;;;;;;;;;26.40;55.42;100214.69;4944813;28;121414;-78
2023/10/13 14:15:39;;;;;;;;;;;;;;;26.37;55.47;100220.47;4945124;28;125066;-78
2023/10/13 14:18:07;;;;;;;;;;;;;;;26.36;55.33;100213.38;4930080;28;112637;-77
2023/10/13 14:20:39;;;;;;;;;;;;;;;26.33;55.41;100214.56;4947902;28;113039;-77
2023/10/13 14:23:07;;;;;;;;;;;;;;;26.32;55.30;100214.78;4941676;28;124534;-78
2023/10/13 14:25:38;;;;;;;;;;;;;;;26.30;55.11;100208.69;4946234;28;124285;-78
2023/10/13 14:28:05;;;;;;;;;;;;;;;26.27;55.34;100214.50;4945834;28;114266;-78
2023/10/13 14:30:33;;;;;;;;;;;;;;;26.26;55.16;100212.78;4946658;28;113800;-77
2023/10/13 14:33:00;;;;;;;;;;;;;;;26.25;55.22;100216.56;4950572;28;124396;-77
2023/10/13 14:35:28;;;;;;;;;;;;;;;26.22;55.51;100210.47;4947851;28;123899;-78
2023/10/13 14:37:55;;;;;;;;;;;;;;;26.22;55.50;100213.19;4939624;28;115723;-78
2023/10/13 14:40:22;;;;;;;;;;;;;;;26.21;55.17;100211.50;4946325;28;115330;-77
2023/10/13 14:42:49;;;;;;;;;;;;;;;26.21;55.26;100219.63;4946107;28;124342;-78
2023/10/13 14:45:16;;;;;;;;;;;;;;;26.21;55.20;100216.09;4948803;28;124229;-78
2023/10/13 14:47:44;;;;;;;;;;;;;;;26.19;55.44;100213.56;4952080;28;114744;-78
2023/10/13 14:50:19;;;;;;;;;;;;;;;26.18;55.31;100217.31;4950539;28;114207;-78
2023/10/13 14:52:48;;;;;;;;;;;;;;;26.17;55.03;100221.03;4948521;28;124200;-78
2023/10/13 14:55:33;;;;;;;;;;;;;;;26.16;55.20;100219.38;4948282;28;124989;-79
2023/10/13 14:58:04;;;;;;;;;;;;;;;26.16;54.89;100213.94;4932614;28;114943;-78
2023/10/13 15:00:31;;;;;;;;;;;;;;;26.14;54.96;100215.97;4945643;28;114174;-78
2023/10/13 15:03:01;;;;;;;;;;;;;;;26.14;55.12;100221.41;4946674;28;125035;-78
2023/10/13 15:05:29;;;;;;;;;;;;;;;26.14;54.90;100213.25;4949906;28;125710;-78
2023/10/13 15:07:56;;;;;;;;;;;;;;;26.14;54.86;100229.53;4943951;28;113697;-78
2023/10/13 15:10:25;;;;;;;;;;;;;;;26.13;54.80;100230.59;4951551;28;115022;-78
2023/10/13 15:12:52;;;;;;;;;;;;;;;26.13;54.92;100214.31;4949753;28;125926;-78
2023/10/13 15:15:19;;;;;;;;;;;;;;;26.11;55.00;100218.25;4934968;28;124188;-77
2023/10/13 15:17:47;;;;;;;;;;;;;;;26.09;54.98;100215.72;4951740;28;112749;-78
2023/10/13 15:20:18;;;;;;;;;;;;;;;26.08;54.96;100216.72;4937389;28;113170;-78
2023/10/13 15:22:48;;;;;;;;;;;;;;;26.07;54.89;100220.47;4936544;28;123224;-78
2023/10/13 15:25:28;;;;;;;;;;;;;;;26.05;54.86;100213.53;4952423;28;124072;-78
2023/10/13 15:28:03;;;;;;;;;;;;;;;26.02;54.76;100212.03;4945046;28;115428;-78
2023/10/13 15:31:10;;;;;;;;;;;;;;;25.99;54.64;100215.13;4930024;28;114615;-78
2023/10/13 15:33:26;;;;;;;;;;;;;;;25.94;54.73;100215.69;4928954;28;125432;-76
2023/10/13 15:35:53;;;;;;;;;;;;;;;25.91;54.60;100204.34;4948358;28;123963;-77
2023/10/13 15:38:22;;;;;;;;;;;;;;;25.84;54.44;100199.66;4928295;28;115802;-76
2023/10/13 15:40:54;;;;;;;;;;;;;;;25.77;54.71;100198.69;4950759;28;112848;-77
2023/10/13 15:43:22;;;;;;;;;;;;;;;25.65;54.39;100178.47;4949517;28;124136;-77
2023/10/13 15:45:49;;;;;;;;;;;;;;;25.58;54.74;100172.06;4949004;28;123681;-78
2023/10/13 15:48:16;;;;;;;;;;;;;;;25.51;54.57;100187.41;4943227;28;115251;-76
2023/10/13 15:50:49;;;;;;;;;;;;;;;25.41;54.68;100172.25;4945370;28;114700;-79
2023/10/13 15:53:17;;;;;;;;;;;;;;;25.34;54.56;100170.44;4940331;28;124393;-78
2023/10/13 15:55:45;;;;;;;;;;;;;;;25.27;54.79;100173.03;4945659;28;125482;-77
2023/10/13 15:58:13;;;;;;;;;;;;;;;25.21;54.82;100179.16;4950150;28;114949;-77